sensor_id;sensor_type;location;lat;lon;timestamp;temperature;humidity
46364;DHT22;32071;49.036;9.344;2023-05-07T00:01:50;12.80;99.90
46364;DHT22;32071;49.036;9.344;2023-05-07T00:04:15;12.80;99.90
46364;DHT22;32071;49.036;9.344;2023-05-07T00:06:41;12.80;99.90
46364;DHT22;32071;49.036;9.344;2023-05-07T00:09:07;12.80;99.90
46364;DHT22;32071;49.036;9.344;2023-05-07T00:11:33;12.80;99.90
46364;DHT22;32071;49.036;9.344;2023-05-07T00:13:59;12.80;99.90
46364;DHT22;32071;49.036;9.344;2023-05-07T00:16:25;12.70;99.90
46364;DHT22;32071;49.036;9.344;2023-05-07T00:18:50;12.70;99.90
46364;DHT22;32071;49.036;9.344;2023-05-07T00:21:16;12.60;99.90
46364;DHT22;32071;49.036;9.344;2023-05-07T00:23:42;12.60;99.90
46364;DHT22;32071;49.036;9.344;2023-05-07T00:26:07;12.50;99.90
46364;DHT22;32071;49.036;9.344;2023-05-07T00:28:33;12.50;99.90
46364;DHT22;32071;49.036;9.344;2023-05-07T00:30:58;12.50;99.90
46364;DHT22;32071;49.036;9.344;2023-05-07T00:33:24;12.40;99.90
46364;DHT22;32071;49.036;9.344;2023-05-07T00:35:52;12.40;99.90
46364;DHT22;32071;49.036;9.344;2023-05-07T00:38:17;12.30;99.90
46364;DHT22;32071;49.036;9.344;2023-05-07T00:40:43;12.30;99.90
46364;DHT22;32071;49.036;9.344;2023-05-07T00:43:08;12.20;99.90
46364;DHT22;32071;49.036;9.344;2023-05-07T00:45:34;12.20;99.90
46364;DHT22;32071;49.036;9.344;2023-05-07T00:48:00;12.20;99.90
46364;DHT22;32071;49.036;9.344;2023-05-07T00:50:30;12.10;99.90
46364;DHT22;32071;49.036;9.344;2023-05-07T00:52:56;12.10;99.90
46364;DHT22;32071;49.036;9.344;2023-05-07T00:55:23;12.00;99.90
46364;DHT22;32071;49.036;9.344;2023-05-07T00:57:49;12.00;99.90
46364;DHT22;32071;49.036;9.344;2023-05-07T01:00:16;12.00;99.90
46364;DHT22;32071;49.036;9.344;2023-05-07T01:02:42;12.00;99.90
46364;DHT22;32071;49.036;9.344;2023-05-07T01:05:11;12.00;99.90
46364;DHT22;32071;49.036;9.344;2023-05-07T01:07:39;11.90;99.90
46364;DHT22;32071;49.036;9.344;2023-05-07T01:10:06;11.90;99.90
46364;DHT22;32071;49.036;9.344;2023-05-07T01:12:33;11.90;99.90
46364;DHT22;32071;49.036;9.344;2023-05-07T01:14:59;11.90;99.90
46364;DHT22;32071;49.036;9.344;2023-05-07T01:17:25;11.90;99.90
46364;DHT22;32071;49.036;9.344;2023-05-07T01:19:50;11.90;99.90
46364;DHT22;32071;49.036;9.344;2023-05-07T01:22:32;12.00;99.90
46364;DHT22;32071;49.036;9.344;2023-05-07T01:24:58;12.00;99.90
46364;DHT22;32071;49.036;9.344;2023-05-07T01:27:25;12.00;99.90
46364;DHT22;32071;49.036;9.344;2023-05-07T01:29:51;12.00;99.90
46364;DHT22;32071;49.036;9.344;2023-05-07T01:32:19;12.10;99.90
46364;DHT22;32071;49.036;9.344;2023-05-07T01:34:48;12.10;99.90
46364;DHT22;32071;49.036;9.344;2023-05-07T01:37:14;12.10;99.90
46364;DHT22;32071;49.036;9.344;2023-05-07T01:39:42;12.10;99.90
46364;DHT22;32071;49.036;9.344;2023-05-07T01:42:08;12.10;99.90
46364;DHT22;32071;49.036;9.344;2023-05-07T01:44:34;12.10;99.90
46364;DHT22;32071;49.036;9.344;2023-05-07T01:46:59;12.10;99.90
46364;DHT22;32071;49.036;9.344;2023-05-07T01:49:26;12.10;99.90
46364;DHT22;32071;49.036;9.344;2023-05-07T01:51:52;12.10;99.90
46364;DHT22;32071;49.036;9.344;2023-05-07T01:54:17;12.20;99.90
46364;DHT22;32071;49.036;9.344;2023-05-07T01:56:43;12.20;99.90
46364;DHT22;32071;49.036;9.344;2023-05-07T01:59:08;12.20;99.90
46364;DHT22;32071;49.036;9.344;2023-05-07T02:01:34;12.20;99.90
46364;DHT22;32071;49.036;9.344;2023-05-07T02:04:00;12.20;99.90
46364;DHT22;32071;49.036;9.344;2023-05-07T02:06:25;12.20;99.90
46364;DHT22;32071;49.036;9.344;2023-05-07T02:08:51;12.20;99.90
46364;DHT22;32071;49.036;9.344;2023-05-07T02:11:16;12.20;99.90
46364;DHT22;32071;49.036;9.344;2023-05-07T02:13:42;12.20;99.90
46364;DHT22;32071;49.036;9.344;2023-05-07T02:16:07;12.10;99.90
46364;DHT22;32071;49.036;9.344;2023-05-07T02:18:33;12.10;99.90
46364;DHT22;32071;49.036;9.344;2023-05-07T02:20:58;12.00;99.90
46364;DHT22;32071;49.036;9.344;2023-05-07T02:23:24;12.10;99.90
46364;DHT22;32071;49.036;9.344;2023-05-07T02:25:50;12.10;99.90
46364;DHT22;32071;49.036;9.344;2023-05-07T02:28:16;12.10;99.90
46364;DHT22;32071;49.036;9.344;2023-05-07T02:30:41;12.10;99.90
46364;DHT22;32071;49.036;9.344;2023-05-07T02:33:07;12.10;99.90
46364;DHT22;32071;49.036;9.344;2023-05-07T02:35:33;12.10;99.90
46364;DHT22;32071;49.036;9.344;2023-05-07T02:37:59;12.00;99.90
46364;DHT22;32071;49.036;9.344;2023-05-07T02:40:25;12.00;99.90
46364;DHT22;32071;49.036;9.344;2023-05-07T02:42:50;11.90;99.90
46364;DHT22;32071;49.036;9.344;2023-05-07T02:45:16;11.90;99.90
46364;DHT22;32071;49.036;9.344;2023-05-07T02:47:41;11.80;99.90
46364;DHT22;32071;49.036;9.344;2023-05-07T02:50:07;11.70;99.90
46364;DHT22;32071;49.036;9.344;2023-05-07T02:52:33;11.70;99.90
46364;DHT22;32071;49.036;9.344;2023-05-07T02:54:58;11.70;99.90
46364;DHT22;32071;49.036;9.344;2023-05-07T02:57:24;11.60;99.90
46364;DHT22;32071;49.036;9.344;2023-05-07T02:59:49;11.60;99.90
46364;DHT22;32071;49.036;9.344;2023-05-07T03:02:16;11.50;99.90
46364;DHT22;32071;49.036;9.344;2023-05-07T03:04:41;11.40;99.90
46364;DHT22;32071;49.036;9.344;2023-05-07T03:07:07;11.40;99.90
46364;DHT22;32071;49.036;9.344;2023-05-07T03:09:33;11.30;99.90
46364;DHT22;32071;49.036;9.344;2023-05-07T03:11:58;11.30;99.90
46364;DHT22;32071;49.036;9.344;2023-05-07T03:14:24;11.30;99.90
46364;DHT22;32071;49.036;9.344;2023-05-07T03:16:49;11.30;99.90
46364;DHT22;32071;49.036;9.344;2023-05-07T03:19:15;11.20;99.90
46364;DHT22;32071;49.036;9.344;2023-05-07T03:21:41;11.20;99.90
46364;DHT22;32071;49.036;9.344;2023-05-07T03:24:06;11.10;99.90
46364;DHT22;32071;49.036;9.344;2023-05-07T03:26:32;11.20;99.90
46364;DHT22;32071;49.036;9.344;2023-05-07T03:28:58;11.20;99.90
46364;DHT22;32071;49.036;9.344;2023-05-07T03:31:23;11.10;99.90
46364;DHT22;32071;49.036;9.344;2023-05-07T03:33:55;11.10;99.90
46364;DHT22;32071;49.036;9.344;2023-05-07T03:36:21;11.10;99.90
46364;DHT22;32071;49.036;9.344;2023-05-07T03:38:48;11.10;99.90
46364;DHT22;32071;49.036;9.344;2023-05-07T03:41:13;11.10;99.90
46364;DHT22;32071;49.036;9.344;2023-05-07T03:43:39;11.00;99.90
46364;DHT22;32071;49.036;9.344;2023-05-07T03:46:05;11.00;99.90
46364;DHT22;32071;49.036;9.344;2023-05-07T03:48:30;11.00;99.90
46364;DHT22;32071;49.036;9.344;2023-05-07T03:50:57;11.00;99.90
46364;DHT22;32071;49.036;9.344;2023-05-07T03:53:23;10.90;99.90
46364;DHT22;32071;49.036;9.344;2023-05-07T03:55:48;10.90;99.90
46364;DHT22;32071;49.036;9.344;2023-05-07T03:58:14;10.80;99.90
46364;DHT22;32071;49.036;9.344;2023-05-07T04:00:40;10.80;99.90
46364;DHT22;32071;49.036;9.344;2023-05-07T04:03:06;10.80;99.90
46364;DHT22;32071;49.036;9.344;2023-05-07T04:05:32;10.80;99.90
46364;DHT22;32071;49.036;9.344;2023-05-07T04:08:01;10.80;99.90
46364;DHT22;32071;49.036;9.344;2023-05-07T04:10:28;10.80;99.90
46364;DHT22;32071;49.036;9.344;2023-05-07T04:12:54;10.80;99.90
46364;DHT22;32071;49.036;9.344;2023-05-07T04:15:20;10.80;99.90
46364;DHT22;32071;49.036;9.344;2023-05-07T04:17:45;10.80;99.90
46364;DHT22;32071;49.036;9.344;2023-05-07T04:20:14;10.80;99.90
46364;DHT22;32071;49.036;9.344;2023-05-07T04:22:40;10.80;99.90
46364;DHT22;32071;49.036;9.344;2023-05-07T04:25:06;10.90;99.90
46364;DHT22;32071;49.036;9.344;2023-05-07T04:27:34;10.80;99.90
46364;DHT22;32071;49.036;9.344;2023-05-07T04:30:00;10.90;99.90
46364;DHT22;32071;49.036;9.344;2023-05-07T04:32:26;11.00;99.90
46364;DHT22;32071;49.036;9.344;2023-05-07T04:34:52;11.00;99.90
46364;DHT22;32071;49.036;9.344;2023-05-07T04:37:17;11.00;99.90
46364;DHT22;32071;49.036;9.344;2023-05-07T04:39:43;11.10;99.90
46364;DHT22;32071;49.036;9.344;2023-05-07T04:42:09;11.10;99.90
46364;DHT22;32071;49.036;9.344;2023-05-07T04:44:35;11.10;99.90
46364;DHT22;32071;49.036;9.344;2023-05-07T04:47:02;11.10;99.90
46364;DHT22;32071;49.036;9.344;2023-05-07T04:49:28;11.20;99.90
46364;DHT22;32071;49.036;9.344;2023-05-07T04:51:53;11.20;99.90
46364;DHT22;32071;49.036;9.344;2023-05-07T04:54:19;11.20;99.90
46364;DHT22;32071;49.036;9.344;2023-05-07T04:56:44;11.40;99.90
46364;DHT22;32071;49.036;9.344;2023-05-07T04:59:11;11.50;99.90
46364;DHT22;32071;49.036;9.344;2023-05-07T05:01:37;11.60;99.90
46364;DHT22;32071;49.036;9.344;2023-05-07T05:04:02;11.70;99.90
46364;DHT22;32071;49.036;9.344;2023-05-07T05:06:28;11.80;99.90
46364;DHT22;32071;49.036;9.344;2023-05-07T05:08:54;11.90;99.90
46364;DHT22;32071;49.036;9.344;2023-05-07T05:11:20;12.00;99.90
46364;DHT22;32071;49.036;9.344;2023-05-07T05:13:46;12.10;99.90
46364;DHT22;32071;49.036;9.344;2023-05-07T05:16:14;12.20;99.90
46364;DHT22;32071;49.036;9.344;2023-05-07T05:18:39;12.30;99.90
46364;DHT22;32071;49.036;9.344;2023-05-07T05:21:05;12.30;99.90
46364;DHT22;32071;49.036;9.344;2023-05-07T05:23:31;12.40;99.90
46364;DHT22;32071;49.036;9.344;2023-05-07T05:25:57;12.50;99.90
46364;DHT22;32071;49.036;9.344;2023-05-07T05:28:23;12.60;99.90
46364;DHT22;32071;49.036;9.344;2023-05-07T05:30:49;12.70;99.90
46364;DHT22;32071;49.036;9.344;2023-05-07T05:33:15;12.70;99.90
46364;DHT22;32071;49.036;9.344;2023-05-07T05:35:41;12.70;99.90
46364;DHT22;32071;49.036;9.344;2023-05-07T05:38:06;12.80;99.90
46364;DHT22;32071;49.036;9.344;2023-05-07T05:40:32;12.80;99.90
46364;DHT22;32071;49.036;9.344;2023-05-07T05:42:58;12.80;99.90
46364;DHT22;32071;49.036;9.344;2023-05-07T05:45:24;12.90;99.90
46364;DHT22;32071;49.036;9.344;2023-05-07T05:47:50;12.90;99.90
46364;DHT22;32071;49.036;9.344;2023-05-07T05:50:15;12.90;99.90
46364;DHT22;32071;49.036;9.344;2023-05-07T05:52:41;13.00;99.90
46364;DHT22;32071;49.036;9.344;2023-05-07T05:55:07;13.10;99.90
46364;DHT22;32071;49.036;9.344;2023-05-07T05:57:33;13.20;99.90
46364;DHT22;32071;49.036;9.344;2023-05-07T06:00:00;13.30;99.90
46364;DHT22;32071;49.036;9.344;2023-05-07T06:02:26;13.30;99.90
46364;DHT22;32071;49.036;9.344;2023-05-07T06:04:51;13.40;99.90
46364;DHT22;32071;49.036;9.344;2023-05-07T06:07:17;13.50;99.90
46364;DHT22;32071;49.036;9.344;2023-05-07T06:09:42;13.60;99.90
46364;DHT22;32071;49.036;9.344;2023-05-07T06:12:08;13.70;99.90
46364;DHT22;32071;49.036;9.344;2023-05-07T06:14:33;13.70;99.90
46364;DHT22;32071;49.036;9.344;2023-05-07T06:16:59;13.80;99.90
46364;DHT22;32071;49.036;9.344;2023-05-07T06:19:24;13.90;99.90
46364;DHT22;32071;49.036;9.344;2023-05-07T06:21:51;13.90;99.90
46364;DHT22;32071;49.036;9.344;2023-05-07T06:24:17;14.00;99.90
46364;DHT22;32071;49.036;9.344;2023-05-07T06:26:42;14.10;99.90
46364;DHT22;32071;49.036;9.344;2023-05-07T06:29:08;14.30;99.90
46364;DHT22;32071;49.036;9.344;2023-05-07T06:31:34;14.50;99.90
46364;DHT22;32071;49.036;9.344;2023-05-07T06:33:59;14.80;99.90
46364;DHT22;32071;49.036;9.344;2023-05-07T06:36:27;15.10;99.90
46364;DHT22;32071;49.036;9.344;2023-05-07T06:38:53;15.30;99.90
46364;DHT22;32071;49.036;9.344;2023-05-07T06:41:18;15.40;99.90
46364;DHT22;32071;49.036;9.344;2023-05-07T06:43:45;15.60;99.90
46364;DHT22;32071;49.036;9.344;2023-05-07T06:46:11;15.70;99.90
46364;DHT22;32071;49.036;9.344;2023-05-07T06:48:36;15.80;99.90
46364;DHT22;32071;49.036;9.344;2023-05-07T06:51:02;16.00;99.90
46364;DHT22;32071;49.036;9.344;2023-05-07T06:53:28;16.30;99.90
46364;DHT22;32071;49.036;9.344;2023-05-07T06:55:54;16.70;99.90
46364;DHT22;32071;49.036;9.344;2023-05-07T06:58:20;17.00;99.90
46364;DHT22;32071;49.036;9.344;2023-05-07T07:00:45;17.20;99.90
46364;DHT22;32071;49.036;9.344;2023-05-07T07:03:11;17.40;99.90
46364;DHT22;32071;49.036;9.344;2023-05-07T07:05:37;17.50;99.90
46364;DHT22;32071;49.036;9.344;2023-05-07T07:08:02;17.60;99.90
46364;DHT22;32071;49.036;9.344;2023-05-07T07:10:28;17.70;99.90
46364;DHT22;32071;49.036;9.344;2023-05-07T07:12:53;17.80;99.90
46364;DHT22;32071;49.036;9.344;2023-05-07T07:15:19;17.90;99.90
46364;DHT22;32071;49.036;9.344;2023-05-07T07:17:46;18.00;99.90
46364;DHT22;32071;49.036;9.344;2023-05-07T07:20:11;18.00;99.90
46364;DHT22;32071;49.036;9.344;2023-05-07T07:22:37;18.10;99.90
46364;DHT22;32071;49.036;9.344;2023-05-07T07:25:03;18.10;99.90
46364;DHT22;32071;49.036;9.344;2023-05-07T07:27:28;18.20;99.90
46364;DHT22;32071;49.036;9.344;2023-05-07T07:29:54;18.40;99.90
46364;DHT22;32071;49.036;9.344;2023-05-07T07:32:20;18.70;99.90
46364;DHT22;32071;49.036;9.344;2023-05-07T07:34:45;18.90;99.90
46364;DHT22;32071;49.036;9.344;2023-05-07T07:37:11;19.10;99.90
46364;DHT22;32071;49.036;9.344;2023-05-07T07:39:36;19.20;99.90
46364;DHT22;32071;49.036;9.344;2023-05-07T07:42:03;19.30;99.90
46364;DHT22;32071;49.036;9.344;2023-05-07T07:44:28;19.40;99.90
46364;DHT22;32071;49.036;9.344;2023-05-07T07:46:54;19.50;99.90
46364;DHT22;32071;49.036;9.344;2023-05-07T07:49:19;19.60;99.90
46364;DHT22;32071;49.036;9.344;2023-05-07T07:51:45;19.70;99.90
46364;DHT22;32071;49.036;9.344;2023-05-07T07:54:11;19.70;99.90
46364;DHT22;32071;49.036;9.344;2023-05-07T07:56:36;19.80;99.90
46364;DHT22;32071;49.036;9.344;2023-05-07T07:59:02;19.80;99.90
46364;DHT22;32071;49.036;9.344;2023-05-07T08:01:31;19.80;99.90
46364;DHT22;32071;49.036;9.344;2023-05-07T08:03:56;19.90;99.90
46364;DHT22;32071;49.036;9.344;2023-05-07T08:06:24;20.00;99.90
46364;DHT22;32071;49.036;9.344;2023-05-07T08:08:51;20.00;99.90
46364;DHT22;32071;49.036;9.344;2023-05-07T08:11:16;19.90;99.90
46364;DHT22;32071;49.036;9.344;2023-05-07T08:13:42;19.90;99.90
46364;DHT22;32071;49.036;9.344;2023-05-07T08:16:08;20.00;99.90
46364;DHT22;32071;49.036;9.344;2023-05-07T08:18:34;20.10;99.90
46364;DHT22;32071;49.036;9.344;2023-05-07T08:21:00;20.30;99.90
46364;DHT22;32071;49.036;9.344;2023-05-07T08:23:26;20.40;99.90
46364;DHT22;32071;49.036;9.344;2023-05-07T08:25:51;20.30;99.90
46364;DHT22;32071;49.036;9.344;2023-05-07T08:28:17;20.40;99.90
46364;DHT22;32071;49.036;9.344;2023-05-07T08:30:43;20.40;99.90
46364;DHT22;32071;49.036;9.344;2023-05-07T08:33:08;20.50;99.90
46364;DHT22;32071;49.036;9.344;2023-05-07T08:35:34;20.50;99.90
46364;DHT22;32071;49.036;9.344;2023-05-07T08:38:00;20.60;99.90
46364;DHT22;32071;49.036;9.344;2023-05-07T08:40:26;20.70;99.90
46364;DHT22;32071;49.036;9.344;2023-05-07T08:42:53;20.70;99.90
46364;DHT22;32071;49.036;9.344;2023-05-07T08:45:20;20.80;99.90
46364;DHT22;32071;49.036;9.344;2023-05-07T08:47:58;21.00;99.90
46364;DHT22;32071;49.036;9.344;2023-05-07T08:50:24;21.00;99.90
46364;DHT22;32071;49.036;9.344;2023-05-07T08:52:49;21.10;99.90
46364;DHT22;32071;49.036;9.344;2023-05-07T08:55:15;21.10;99.90
46364;DHT22;32071;49.036;9.344;2023-05-07T08:57:41;21.20;99.90
46364;DHT22;32071;49.036;9.344;2023-05-07T09:00:06;21.30;99.90
46364;DHT22;32071;49.036;9.344;2023-05-07T09:02:34;21.50;99.90
46364;DHT22;32071;49.036;9.344;2023-05-07T09:05:00;21.50;99.90
46364;DHT22;32071;49.036;9.344;2023-05-07T09:07:25;21.60;99.90
46364;DHT22;32071;49.036;9.344;2023-05-07T09:09:52;21.70;99.90
46364;DHT22;32071;49.036;9.344;2023-05-07T09:12:18;21.80;99.90
46364;DHT22;32071;49.036;9.344;2023-05-07T09:14:44;21.80;99.90
46364;DHT22;32071;49.036;9.344;2023-05-07T09:17:09;21.80;99.90
46364;DHT22;32071;49.036;9.344;2023-05-07T09:19:35;22.00;99.90
46364;DHT22;32071;49.036;9.344;2023-05-07T09:22:02;22.10;99.90
46364;DHT22;32071;49.036;9.344;2023-05-07T09:24:28;22.20;99.90
46364;DHT22;32071;49.036;9.344;2023-05-07T09:26:59;22.20;99.90
46364;DHT22;32071;49.036;9.344;2023-05-07T09:29:25;22.00;99.90
46364;DHT22;32071;49.036;9.344;2023-05-07T09:31:51;22.00;99.90
46364;DHT22;32071;49.036;9.344;2023-05-07T09:34:16;22.20;99.90
46364;DHT22;32071;49.036;9.344;2023-05-07T09:36:42;22.30;99.90
46364;DHT22;32071;49.036;9.344;2023-05-07T09:39:07;22.40;99.90
46364;DHT22;32071;49.036;9.344;2023-05-07T09:41:43;22.40;99.90
46364;DHT22;32071;49.036;9.344;2023-05-07T09:44:09;22.30;99.90
46364;DHT22;32071;49.036;9.344;2023-05-07T09:46:36;22.20;99.90
46364;DHT22;32071;49.036;9.344;2023-05-07T09:49:06;22.30;99.90
46364;DHT22;32071;49.036;9.344;2023-05-07T09:51:45;22.40;99.90
46364;DHT22;32071;49.036;9.344;2023-05-07T09:54:12;22.50;99.90
46364;DHT22;32071;49.036;9.344;2023-05-07T09:56:39;22.60;99.90
46364;DHT22;32071;49.036;9.344;2023-05-07T09:59:08;22.70;99.90
46364;DHT22;32071;49.036;9.344;2023-05-07T10:01:36;22.90;99.90
46364;DHT22;32071;49.036;9.344;2023-05-07T10:04:02;23.10;99.90
46364;DHT22;32071;49.036;9.344;2023-05-07T10:06:34;23.30;99.90
46364;DHT22;32071;49.036;9.344;2023-05-07T10:09:01;23.40;99.90
46364;DHT22;32071;49.036;9.344;2023-05-07T10:11:27;23.40;99.90
46364;DHT22;32071;49.036;9.344;2023-05-07T10:13:53;23.60;99.90
46364;DHT22;32071;49.036;9.344;2023-05-07T10:16:20;23.80;99.60
46364;DHT22;32071;49.036;9.344;2023-05-07T10:18:46;23.70;99.90
46364;DHT22;32071;49.036;9.344;2023-05-07T10:21:19;23.90;99.90
46364;DHT22;32071;49.036;9.344;2023-05-07T10:23:55;24.20;99.50
46364;DHT22;32071;49.036;9.344;2023-05-07T10:26:23;24.30;99.90
46364;DHT22;32071;49.036;9.344;2023-05-07T10:28:55;24.30;97.30
46364;DHT22;32071;49.036;9.344;2023-05-07T10:34:16;24.60;98.80
46364;DHT22;32071;49.036;9.344;2023-05-07T10:36:43;24.60;99.50
46364;DHT22;32071;49.036;9.344;2023-05-07T10:39:10;24.60;98.10
46364;DHT22;32071;49.036;9.344;2023-05-07T10:41:36;24.80;96.90
46364;DHT22;32071;49.036;9.344;2023-05-07T10:44:02;25.10;96.80
46364;DHT22;32071;49.036;9.344;2023-05-07T10:46:28;25.20;98.50
46364;DHT22;32071;49.036;9.344;2023-05-07T10:51:28;25.10;97.10
46364;DHT22;32071;49.036;9.344;2023-05-07T10:56:42;24.60;97.70
46364;DHT22;32071;49.036;9.344;2023-05-07T11:01:57;24.60;98.40
46364;DHT22;32071;49.036;9.344;2023-05-07T11:04:24;24.60;96.70
46364;DHT22;32071;49.036;9.344;2023-05-07T11:09:57;23.90;96.60
46364;DHT22;32071;49.036;9.344;2023-05-07T11:15:02;24.30;96.80
46364;DHT22;32071;49.036;9.344;2023-05-07T11:17:29;24.30;97.30
46364;DHT22;32071;49.036;9.344;2023-05-07T11:19:58;24.30;97.50
46364;DHT22;32071;49.036;9.344;2023-05-07T11:25:06;24.10;96.10
46364;DHT22;32071;49.036;9.344;2023-05-07T11:27:32;24.00;97.30
46364;DHT22;32071;49.036;9.344;2023-05-07T11:29:59;24.20;97.60
46364;DHT22;32071;49.036;9.344;2023-05-07T11:32:28;24.10;96.10
46364;DHT22;32071;49.036;9.344;2023-05-07T11:34:55;24.10;96.50
46364;DHT22;32071;49.036;9.344;2023-05-07T11:37:22;24.10;97.30
46364;DHT22;32071;49.036;9.344;2023-05-07T11:39:48;24.10;96.40
46364;DHT22;32071;49.036;9.344;2023-05-07T11:42:28;24.10;96.80
46364;DHT22;32071;49.036;9.344;2023-05-07T11:44:54;24.30;96.50
46364;DHT22;32071;49.036;9.344;2023-05-07T11:47:20;24.30;95.70
46364;DHT22;32071;49.036;9.344;2023-05-07T11:49:52;24.30;96.90
46364;DHT22;32071;49.036;9.344;2023-05-07T11:52:19;24.30;96.70
46364;DHT22;32071;49.036;9.344;2023-05-07T11:54:53;24.30;96.60
46364;DHT22;32071;49.036;9.344;2023-05-07T11:57:20;24.40;97.10
46364;DHT22;32071;49.036;9.344;2023-05-07T11:59:46;24.50;95.80
46364;DHT22;32071;49.036;9.344;2023-05-07T12:02:17;24.60;96.10
46364;DHT22;32071;49.036;9.344;2023-05-07T12:04:43;24.60;96.70
46364;DHT22;32071;49.036;9.344;2023-05-07T12:07:12;24.60;95.20
46364;DHT22;32071;49.036;9.344;2023-05-07T12:09:42;24.70;95.30
46364;DHT22;32071;49.036;9.344;2023-05-07T12:12:08;24.90;95.50
46364;DHT22;32071;49.036;9.344;2023-05-07T12:14:41;25.10;94.50
46364;DHT22;32071;49.036;9.344;2023-05-07T12:17:11;25.20;93.60
46364;DHT22;32071;49.036;9.344;2023-05-07T12:19:38;25.60;93.20
46364;DHT22;32071;49.036;9.344;2023-05-07T12:22:04;26.10;93.40
46364;DHT22;32071;49.036;9.344;2023-05-07T12:24:47;26.30;95.00
46364;DHT22;32071;49.036;9.344;2023-05-07T12:27:16;26.30;93.10
46364;DHT22;32071;49.036;9.344;2023-05-07T12:29:50;26.20;93.80
46364;DHT22;32071;49.036;9.344;2023-05-07T12:32:20;26.20;93.40
46364;DHT22;32071;49.036;9.344;2023-05-07T12:34:49;26.30;94.60
46364;DHT22;32071;49.036;9.344;2023-05-07T12:37:15;26.30;94.20
46364;DHT22;32071;49.036;9.344;2023-05-07T12:40:11;26.10;94.20
46364;DHT22;32071;49.036;9.344;2023-05-07T12:42:39;26.40;94.70
46364;DHT22;32071;49.036;9.344;2023-05-07T12:45:12;26.80;93.80
46364;DHT22;32071;49.036;9.344;2023-05-07T12:47:37;27.00;91.80
46364;DHT22;32071;49.036;9.344;2023-05-07T12:50:06;27.20;92.60
46364;DHT22;32071;49.036;9.344;2023-05-07T12:52:32;27.50;92.10
46364;DHT22;32071;49.036;9.344;2023-05-07T12:55:07;27.60;91.80
46364;DHT22;32071;49.036;9.344;2023-05-07T12:57:45;27.60;89.50
46364;DHT22;32071;49.036;9.344;2023-05-07T13:00:12;27.60;90.40
46364;DHT22;32071;49.036;9.344;2023-05-07T13:02:40;27.60;91.40
46364;DHT22;32071;49.036;9.344;2023-05-07T13:05:06;27.40;92.90
46364;DHT22;32071;49.036;9.344;2023-05-07T13:07:32;27.30;91.60
46364;DHT22;32071;49.036;9.344;2023-05-07T13:09:57;27.00;91.10
46364;DHT22;32071;49.036;9.344;2023-05-07T13:12:23;26.60;91.20
46364;DHT22;32071;49.036;9.344;2023-05-07T13:14:48;26.40;91.10
46364;DHT22;32071;49.036;9.344;2023-05-07T13:17:14;26.00;91.20
46364;DHT22;32071;49.036;9.344;2023-05-07T13:19:40;25.40;92.60
46364;DHT22;32071;49.036;9.344;2023-05-07T13:22:05;24.90;93.10
46364;DHT22;32071;49.036;9.344;2023-05-07T13:24:31;24.60;93.20
46364;DHT22;32071;49.036;9.344;2023-05-07T13:26:56;24.30;93.60
46364;DHT22;32071;49.036;9.344;2023-05-07T13:29:22;24.10;94.20
46364;DHT22;32071;49.036;9.344;2023-05-07T13:31:54;23.80;94.20
46364;DHT22;32071;49.036;9.344;2023-05-07T13:34:21;23.60;95.10
46364;DHT22;32071;49.036;9.344;2023-05-07T13:36:46;23.20;95.20
46364;DHT22;32071;49.036;9.344;2023-05-07T13:39:12;22.80;96.00
46364;DHT22;32071;49.036;9.344;2023-05-07T13:41:37;22.60;96.80
46364;DHT22;32071;49.036;9.344;2023-05-07T13:44:03;22.50;97.20
46364;DHT22;32071;49.036;9.344;2023-05-07T13:46:29;22.40;96.80
46364;DHT22;32071;49.036;9.344;2023-05-07T13:48:55;22.30;96.10
46364;DHT22;32071;49.036;9.344;2023-05-07T13:51:21;22.20;96.60
46364;DHT22;32071;49.036;9.344;2023-05-07T13:53:47;22.10;96.40
46364;DHT22;32071;49.036;9.344;2023-05-07T13:56:12;21.80;96.50
46364;DHT22;32071;49.036;9.344;2023-05-07T13:58:38;21.80;96.90
46364;DHT22;32071;49.036;9.344;2023-05-07T14:01:04;21.70;97.30
46364;DHT22;32071;49.036;9.344;2023-05-07T14:03:29;21.30;96.80
46364;DHT22;32071;49.036;9.344;2023-05-07T14:05:57;21.10;97.90
46364;DHT22;32071;49.036;9.344;2023-05-07T14:08:23;20.80;98.90
46364;DHT22;32071;49.036;9.344;2023-05-07T14:10:48;20.50;99.80
46364;DHT22;32071;49.036;9.344;2023-05-07T14:13:14;20.40;99.90
46364;DHT22;32071;49.036;9.344;2023-05-07T14:15:39;20.30;99.90
46364;DHT22;32071;49.036;9.344;2023-05-07T14:18:05;20.40;99.90
46364;DHT22;32071;49.036;9.344;2023-05-07T14:20:31;20.40;99.90
46364;DHT22;32071;49.036;9.344;2023-05-07T14:22:57;20.30;99.90
46364;DHT22;32071;49.036;9.344;2023-05-07T14:25:23;20.00;99.90
46364;DHT22;32071;49.036;9.344;2023-05-07T14:27:48;19.80;99.90
46364;DHT22;32071;49.036;9.344;2023-05-07T14:30:14;19.70;99.90
46364;DHT22;32071;49.036;9.344;2023-05-07T14:32:39;19.40;99.90
46364;DHT22;32071;49.036;9.344;2023-05-07T14:35:05;19.20;99.90
46364;DHT22;32071;49.036;9.344;2023-05-07T14:37:30;19.10;99.90
46364;DHT22;32071;49.036;9.344;2023-05-07T14:39:56;19.00;99.90
46364;DHT22;32071;49.036;9.344;2023-05-07T14:42:21;18.90;99.90
46364;DHT22;32071;49.036;9.344;2023-05-07T14:44:47;18.80;99.90
46364;DHT22;32071;49.036;9.344;2023-05-07T14:47:13;18.70;99.90
46364;DHT22;32071;49.036;9.344;2023-05-07T14:49:39;18.70;99.90
46364;DHT22;32071;49.036;9.344;2023-05-07T14:52:05;18.50;99.90
46364;DHT22;32071;49.036;9.344;2023-05-07T14:54:33;18.40;99.90
46364;DHT22;32071;49.036;9.344;2023-05-07T14:57:01;18.40;99.90
46364;DHT22;32071;49.036;9.344;2023-05-07T14:59:27;18.30;99.90
46364;DHT22;32071;49.036;9.344;2023-05-07T15:01:52;18.20;99.90
46364;DHT22;32071;49.036;9.344;2023-05-07T15:04:18;18.20;99.90
46364;DHT22;32071;49.036;9.344;2023-05-07T15:06:44;18.10;99.90
46364;DHT22;32071;49.036;9.344;2023-05-07T15:09:09;18.10;99.90
46364;DHT22;32071;49.036;9.344;2023-05-07T15:11:35;18.10;99.90
46364;DHT22;32071;49.036;9.344;2023-05-07T15:14:00;17.90;99.90
46364;DHT22;32071;49.036;9.344;2023-05-07T15:16:26;17.90;99.90
46364;DHT22;32071;49.036;9.344;2023-05-07T15:18:52;17.80;99.90
46364;DHT22;32071;49.036;9.344;2023-05-07T15:21:17;17.70;99.90
46364;DHT22;32071;49.036;9.344;2023-05-07T15:23:43;17.70;99.90
46364;DHT22;32071;49.036;9.344;2023-05-07T15:26:09;17.70;99.90
46364;DHT22;32071;49.036;9.344;2023-05-07T15:28:35;17.70;99.90
46364;DHT22;32071;49.036;9.344;2023-05-07T15:31:01;17.70;99.90
46364;DHT22;32071;49.036;9.344;2023-05-07T15:33:26;17.60;99.90
46364;DHT22;32071;49.036;9.344;2023-05-07T15:35:52;17.60;99.90
46364;DHT22;32071;49.036;9.344;2023-05-07T15:38:17;17.60;99.90
46364;DHT22;32071;49.036;9.344;2023-05-07T15:40:43;17.50;99.90
46364;DHT22;32071;49.036;9.344;2023-05-07T15:43:09;17.50;99.90
46364;DHT22;32071;49.036;9.344;2023-05-07T15:45:39;17.40;99.90